createdAt,value
2022-08-25T00:01:59.215Z,69.90
2022-08-25T00:04:26.933Z,63.70
2022-08-25T00:06:54.103Z,63.50
2022-08-25T00:09:24.365Z,71.40
2022-08-25T00:11:51.703Z,72.00
2022-08-25T00:14:23.149Z,68.70
2022-08-25T00:16:50.653Z,60.40
2022-08-25T00:19:24.162Z,68.30
2022-08-25T00:21:51.819Z,63.10
2022-08-25T00:24:21.042Z,61.50
2022-08-25T00:26:50.572Z,61.30
2022-08-25T00:29:17.892Z,63.60
2022-08-25T00:31:45.277Z,56.00
2022-08-25T00:34:19.956Z,56.30
2022-08-25T00:36:46.804Z,51.50
2022-08-25T00:39:14.354Z,57.40
2022-08-25T00:41:43.088Z,48.10
2022-08-25T00:44:13.487Z,52.40
2022-08-25T00:46:44.124Z,50.50
2022-08-25T00:49:27.562Z,49.10
2022-08-25T00:52:06.127Z,52.40
2022-08-25T00:54:37.896Z,59.00
2022-08-25T00:57:06.797Z,51.40
2022-08-25T00:59:34.610Z,49.30
2022-08-25T01:02:03.402Z,54.90
2022-08-25T01:04:30.176Z,50.80
2022-08-25T01:06:58.350Z,51.10
2022-08-25T01:09:25.276Z,50.40
2022-08-25T01:11:52.863Z,44.00
2022-08-25T01:14:21.771Z,46.20
2022-08-25T01:16:51.191Z,47.90
2022-08-25T01:19:21.247Z,54.00
2022-08-25T01:21:50.883Z,152.30
2022-08-25T01:24:41.079Z,63.30
2022-08-25T01:27:09.628Z,56.20
2022-08-25T01:29:37.259Z,49.30
2022-08-25T01:32:08.809Z,43.60
2022-08-25T01:34:38.112Z,43.00
2022-08-25T01:37:05.154Z,38.70
2022-08-25T01:39:33.076Z,50.20
2022-08-25T01:41:59.674Z,43.60
2022-08-25T01:44:26.593Z,43.90
2022-08-25T01:46:54.012Z,37.50
2022-08-25T01:49:21.776Z,39.80
2022-08-25T01:51:57.611Z,42.20
2022-08-25T01:54:24.189Z,40.50
2022-08-25T01:56:50.875Z,48.00
2022-08-25T01:59:23.902Z,42.90
2022-08-25T02:01:51.607Z,42.20
2022-08-25T02:04:28.028Z,42.10
2022-08-25T02:06:54.775Z,43.30
2022-08-25T02:09:21.282Z,42.40
2022-08-25T02:11:48.116Z,49.50
2022-08-25T02:14:15.930Z,68.50
2022-08-25T02:16:47.843Z,56.60
2022-08-25T02:19:15.201Z,61.20
2022-08-25T02:21:42.220Z,64.50
2022-08-25T02:24:09.592Z,88.00
2022-08-25T02:26:36.522Z,91.10
2022-08-25T02:29:04.665Z,82.80
2022-08-25T02:31:31.857Z,93.60
2022-08-25T02:33:58.602Z,92.50
2022-08-25T02:36:25.757Z,82.20
2022-08-25T02:38:52.536Z,101.30
2022-08-25T02:41:22.794Z,93.40
2022-08-25T02:43:57.667Z,86.20
2022-08-25T02:46:24.572Z,73.80
2022-08-25T02:48:51.982Z,74.30
2022-08-25T02:51:20.780Z,73.60
2022-08-25T02:53:47.595Z,69.20
2022-08-25T02:56:15.578Z,68.80
2022-08-25T02:58:42.454Z,68.30
2022-08-25T03:01:10.479Z,84.80
2022-08-25T03:03:39.536Z,72.50
2022-08-25T03:06:09.146Z,69.50
2022-08-25T03:08:37.619Z,66.90
2022-08-25T03:11:05.773Z,71.80
2022-08-25T03:13:32.969Z,58.90
2022-08-25T03:16:02.990Z,64.30
2022-08-25T03:18:30.372Z,63.20
2022-08-25T03:20:58.244Z,62.30
2022-08-25T03:23:25.124Z,67.20
2022-08-25T03:25:54.751Z,73.40
2022-08-25T03:28:25.033Z,64.00
2022-08-25T03:30:57.495Z,65.00
2022-08-25T03:33:24.026Z,61.90
2022-08-25T03:35:50.537Z,61.80
2022-08-25T03:38:17.408Z,62.40
2022-08-25T03:40:44.155Z,54.60
2022-08-25T03:43:10.849Z,63.60
2022-08-25T03:45:42.388Z,59.50
2022-08-25T03:48:09.205Z,60.10
2022-08-25T03:50:36.457Z,58.40
2022-08-25T03:53:03.818Z,56.80
2022-08-25T03:55:30.766Z,62.40
2022-08-25T03:57:59.315Z,69.90
2022-08-25T04:00:26.306Z,53.70
2022-08-25T04:02:53.051Z,53.90
2022-08-25T04:05:19.591Z,50.90
2022-08-25T04:07:46.862Z,55.50
2022-08-25T04:10:13.605Z,51.00
2022-08-25T04:12:43.857Z,49.30
2022-08-25T04:15:11.205Z,55.40
2022-08-25T04:17:39.836Z,57.20
2022-08-25T04:20:09.179Z,52.50
2022-08-25T04:22:37.071Z,47.00
2022-08-25T04:25:06.354Z,49.30
2022-08-25T04:27:32.998Z,49.50
2022-08-25T04:29:59.745Z,48.00
2022-08-25T04:32:26.484Z,53.40
2022-08-25T04:34:53.233Z,48.10
2022-08-25T04:37:19.901Z,48.20
2022-08-25T04:39:46.544Z,45.00
2022-08-25T04:42:13.679Z,46.20
2022-08-25T04:44:40.219Z,50.30
2022-08-25T04:47:06.907Z,59.80
2022-08-25T04:49:33.514Z,55.70
2022-08-25T04:52:00.345Z,53.20
2022-08-25T04:54:26.941Z,56.10
2022-08-25T04:56:58.090Z,55.70
2022-08-25T04:59:29.913Z,41.10
2022-08-25T05:01:58.093Z,48.80
2022-08-25T05:04:28.376Z,43.70
2022-08-25T05:06:56.372Z,40.30
2022-08-25T05:09:23.853Z,46.00
2022-08-25T05:11:53.459Z,49.60
2022-08-25T05:14:20.958Z,46.90
2022-08-25T05:16:48.017Z,44.00
2022-08-25T05:19:14.807Z,45.10
2022-08-25T05:21:41.389Z,50.10
2022-08-25T05:24:08.213Z,49.50
2022-08-25T05:26:35.450Z,57.40
2022-08-25T05:29:04.092Z,59.50
2022-08-25T05:31:32.906Z,56.20
2022-08-25T05:34:00.115Z,59.20
2022-08-25T05:36:28.166Z,54.80
2022-08-25T05:38:54.721Z,54.70
2022-08-25T05:41:26.862Z,46.90
2022-08-25T05:43:53.545Z,46.00
2022-08-25T05:46:21.352Z,53.30
2022-08-25T05:48:48.845Z,48.10
2022-08-25T05:51:16.014Z,55.30
2022-08-25T05:53:45.786Z,47.70
2022-08-25T05:56:12.896Z,45.80
2022-08-25T05:58:40.771Z,45.80
2022-08-25T06:01:08.027Z,55.40
2022-08-25T06:03:34.593Z,45.90
2022-08-25T06:06:10.387Z,41.70
2022-08-25T06:08:37.105Z,45.90
2022-08-25T06:11:06.726Z,41.40
2022-08-25T06:13:33.953Z,47.70
2022-08-25T06:16:01.194Z,39.60
2022-08-25T06:18:28.201Z,44.10
2022-08-25T06:20:54.751Z,41.50
2022-08-25T06:23:21.443Z,45.10
2022-08-25T06:25:53.583Z,44.30
2022-08-25T06:28:21.183Z,48.80
2022-08-25T06:30:48.239Z,37.70
2022-08-25T06:33:15.398Z,50.60
2022-08-25T06:35:44.043Z,38.30
2022-08-25T06:38:11.547Z,46.10
2022-08-25T06:40:38.602Z,46.80
2022-08-25T06:43:05.356Z,44.00
2022-08-25T06:45:32.147Z,44.00
2022-08-25T06:47:58.793Z,49.70
2022-08-25T06:50:25.991Z,43.70
2022-08-25T06:52:52.631Z,44.50
2022-08-25T06:55:19.379Z,44.80
2022-08-25T06:57:45.946Z,52.80
2022-08-25T07:00:12.860Z,57.90
2022-08-25T07:02:39.681Z,50.10
2022-08-25T07:05:08.249Z,55.70
2022-08-25T07:07:42.998Z,45.30
2022-08-25T07:10:11.546Z,44.50
2022-08-25T07:12:38.442Z,49.00
2022-08-25T07:15:21.211Z,57.40
2022-08-25T07:17:48.861Z,60.40
2022-08-25T07:20:19.248Z,44.70
2022-08-25T07:22:47.027Z,56.30
2022-08-25T07:25:13.733Z,55.10
2022-08-25T07:27:42.294Z,54.80
2022-08-25T07:30:11.205Z,59.40
2022-08-25T07:32:41.944Z,56.00
2022-08-25T07:35:10.509Z,46.90
2022-08-25T07:37:49.640Z,44.40
2022-08-25T07:40:21.485Z,47.10
2022-08-25T07:42:54.164Z,43.50
2022-08-25T07:45:22.747Z,42.50
2022-08-25T07:47:51.683Z,42.60
2022-08-25T07:50:19.561Z,32.10
2022-08-25T07:52:53.927Z,41.00
2022-08-25T07:55:27.052Z,38.40
2022-08-25T07:57:57.068Z,32.90
2022-08-25T08:00:25.165Z,41.20
2022-08-25T08:02:52.507Z,36.70
2022-08-25T08:05:20.287Z,45.60
2022-08-25T08:07:50.787Z,43.90
2022-08-25T08:13:06.521Z,41.60
2022-08-25T08:15:34.794Z,32.80
2022-08-25T08:18:01.385Z,44.70
2022-08-25T08:20:30.159Z,32.50
2022-08-25T08:23:07.874Z,33.20
2022-08-25T08:25:34.674Z,33.30
2022-08-25T08:28:01.178Z,32.80
2022-08-25T08:30:28.070Z,41.40
2022-08-25T08:33:11.672Z,32.60
2022-08-25T08:35:40.347Z,44.00
2022-08-25T08:38:14.712Z,45.00
2022-08-25T08:41:01.383Z,37.40
2022-08-25T08:43:33.214Z,44.70
2022-08-25T08:46:00.102Z,30.40
2022-08-25T08:49:02.033Z,29.40
2022-08-25T08:51:43.416Z,42.50
2022-08-25T08:54:23.146Z,44.10
2022-08-25T08:56:57.691Z,37.20
2022-08-25T08:59:30.835Z,40.60
2022-08-25T09:02:02.639Z,30.60
2022-08-25T09:04:44.103Z,29.60
2022-08-25T09:07:17.439Z,34.30
2022-08-25T09:09:48.486Z,45.10
2022-08-25T09:12:47.469Z,36.80
2022-08-25T09:16:01.430Z,30.30
2022-08-25T09:18:50.735Z,32.60
2022-08-25T09:21:27.392Z,35.00
2022-08-25T09:24:02.976Z,35.30
2022-08-25T09:26:39.928Z,31.40
2022-08-25T09:29:16.622Z,29.10
2022-08-25T09:31:44.864Z,32.10
2022-08-25T09:34:20.730Z,28.60
2022-08-25T09:36:47.856Z,23.20
2022-08-25T09:39:14.738Z,31.80
2022-08-25T09:41:45.339Z,32.40
2022-08-25T09:44:26.282Z,35.00
2022-08-25T09:46:55.874Z,27.70
2022-08-25T09:49:32.152Z,36.00
2022-08-25T09:52:25.244Z,35.00
2022-08-25T09:54:54.086Z,30.90
2022-08-25T09:57:42.817Z,33.90
2022-08-25T10:00:36.253Z,33.20
2022-08-25T10:03:24.881Z,27.90
2022-08-25T10:06:06.117Z,31.70
2022-08-25T10:08:39.561Z,35.10
2022-08-25T10:11:28.966Z,25.60
2022-08-25T10:14:16.178Z,33.00
2022-08-25T10:16:46.905Z,30.70
2022-08-25T10:19:24.331Z,30.40
2022-08-25T10:22:08.011Z,25.30
2022-08-25T10:24:40.995Z,29.90
2022-08-25T10:27:18.556Z,30.30
2022-08-25T10:30:10.271Z,32.30
2022-08-25T10:33:03.090Z,29.80
2022-08-25T10:35:56.804Z,31.60
2022-08-25T10:38:42.990Z,24.40
2022-08-25T10:41:21.999Z,33.00
2022-08-25T10:44:45.885Z,27.10
2022-08-25T10:47:17.998Z,19.60
2022-08-25T10:49:55.693Z,27.40
2022-08-25T10:52:36.912Z,18.50
2022-08-25T10:55:13.049Z,24.90
2022-08-25T10:58:18.400Z,25.10
2022-08-25T11:01:04.183Z,26.40
2022-08-25T11:03:53.156Z,27.50
2022-08-25T11:06:35.384Z,21.20
2022-08-25T11:09:08.186Z,18.70
2022-08-25T11:11:46.264Z,24.90
2022-08-25T11:14:31.395Z,25.20
2022-08-25T11:17:15.635Z,27.10
2022-08-25T11:19:51.458Z,29.40
2022-08-25T11:22:36.113Z,21.60
2022-08-25T11:25:14.561Z,21.40
2022-08-25T11:28:07.230Z,19.40
2022-08-25T11:30:34.594Z,22.40
2022-08-25T11:33:02.119Z,26.10
2022-08-25T11:35:43.744Z,22.40
2022-08-25T11:38:37.593Z,22.90
2022-08-25T11:41:27.661Z,22.70
2022-08-25T11:44:07.086Z,26.20
2022-08-25T11:46:51.596Z,23.60
2022-08-25T11:49:46.283Z,24.00
2022-08-25T11:52:32.902Z,29.00
2022-08-25T11:55:22.873Z,21.90
2022-08-25T11:57:53.630Z,23.80
2022-08-25T12:00:37.882Z,29.40
2022-08-25T12:03:32.625Z,22.20
2022-08-25T12:06:32.098Z,23.40
2022-08-25T12:09:01.568Z,33.30
2022-08-25T12:11:49.074Z,27.40
2022-08-25T12:14:21.815Z,20.50
2022-08-25T12:16:51.702Z,25.00
2022-08-25T12:22:01.053Z,30.00
2022-08-25T12:24:48.207Z,22.70
2022-08-25T12:27:41.709Z,29.90
2022-08-25T12:30:36.560Z,23.20
2022-08-25T12:33:17.796Z,25.10
2022-08-25T12:36:01.770Z,20.50
2022-08-25T12:38:43.281Z,23.50
2022-08-25T12:41:27.292Z,25.00
2022-08-25T12:44:31.993Z,31.40
2022-08-25T12:47:27.038Z,29.00
2022-08-25T12:50:14.157Z,26.50
2022-08-25T12:52:41.107Z,20.10
2022-08-25T12:55:13.304Z,21.90
2022-08-25T12:57:51.093Z,25.30
2022-08-25T13:00:22.038Z,25.80
2022-08-25T13:03:04.072Z,25.50
2022-08-25T13:05:58.279Z,26.00
2022-08-25T13:09:08.498Z,30.60
2022-08-25T13:11:54.860Z,27.30
2022-08-25T13:14:40.598Z,25.00
2022-08-25T13:17:09.720Z,21.60
2022-08-25T13:19:37.684Z,26.20
2022-08-25T13:22:16.322Z,30.60
2022-08-25T13:24:45.703Z,19.40
2022-08-25T13:27:25.027Z,24.10
2022-08-25T13:29:59.584Z,22.80
2022-08-25T13:32:36.030Z,22.00
2022-08-25T13:35:17.809Z,21.40
2022-08-25T13:37:46.984Z,22.30
2022-08-25T13:40:19.665Z,21.70
2022-08-25T13:42:55.565Z,25.50
2022-08-25T13:45:26.421Z,20.00
2022-08-25T13:48:07.562Z,26.00
2022-08-25T13:50:42.759Z,23.10
2022-08-25T13:53:24.638Z,25.10
2022-08-25T13:55:54.391Z,20.50
2022-08-25T13:58:39.471Z,20.00
2022-08-25T14:01:48.025Z,20.30
2022-08-25T14:04:27.182Z,21.90
2022-08-25T14:07:06.011Z,25.00
2022-08-25T14:09:51.012Z,22.90
2022-08-25T14:12:37.369Z,20.20
2022-08-25T14:15:28.708Z,19.80
2022-08-25T14:18:17.671Z,19.20
2022-08-25T14:20:50.250Z,23.80
2022-08-25T14:23:20.863Z,20.20
2022-08-25T14:25:52.643Z,22.10
2022-08-25T14:28:25.727Z,16.30
2022-08-25T14:30:59.882Z,11.90
2022-08-25T14:33:33.228Z,19.00
2022-08-25T14:36:01.441Z,19.50
2022-08-25T14:38:28.272Z,16.20
2022-08-25T14:40:54.990Z,16.60
2022-08-25T14:43:31.923Z,14.60
2022-08-25T14:46:02.591Z,17.90
2022-08-25T14:48:45.493Z,18.50
2022-08-25T14:51:14.553Z,21.70
2022-08-25T14:53:45.620Z,15.80
2022-08-25T14:56:12.210Z,16.10
2022-08-25T14:58:50.889Z,21.40
2022-08-25T15:01:28.831Z,22.30
2022-08-25T15:04:21.757Z,22.50
2022-08-25T15:06:54.960Z,15.20
2022-08-25T15:09:21.621Z,14.70
2022-08-25T15:11:54.646Z,14.90
2022-08-25T15:14:29.176Z,16.00
2022-08-25T15:17:02.027Z,17.60
2022-08-25T15:19:29.477Z,13.20
2022-08-25T15:21:58.161Z,14.70
2022-08-25T15:24:27.710Z,14.10
2022-08-25T15:26:59.086Z,21.90
2022-08-25T15:29:27.823Z,21.50
2022-08-25T15:31:54.826Z,15.80
2022-08-25T15:34:22.129Z,19.80
2022-08-25T15:36:48.874Z,14.30
2022-08-25T15:39:15.826Z,17.00
2022-08-25T15:41:46.568Z,13.00
2022-08-25T15:44:16.087Z,17.10
2022-08-25T15:46:49.681Z,17.80
2022-08-25T15:49:20.667Z,18.30
2022-08-25T15:51:54.253Z,15.30
2022-08-25T15:54:23.023Z,16.00
2022-08-25T15:56:50.710Z,18.40
2022-08-25T15:59:19.379Z,19.00
2022-08-25T16:01:49.777Z,20.30
2022-08-25T16:04:16.367Z,13.90
2022-08-25T16:06:44.535Z,18.30
2022-08-25T16:09:12.083Z,16.80
2022-08-25T16:11:38.818Z,18.60
2022-08-25T16:14:06.510Z,14.50
2022-08-25T16:16:33.954Z,17.40
2022-08-25T16:19:01.743Z,23.50
2022-08-25T16:21:32.677Z,17.50
2022-08-25T16:24:05.497Z,15.00
2022-08-25T16:26:36.590Z,14.50
2022-08-25T16:29:06.579Z,15.50
2022-08-25T16:34:00.230Z,21.10
2022-08-25T16:36:27.964Z,18.30
2022-08-25T16:38:56.281Z,18.70
2022-08-25T16:41:25.971Z,12.70
2022-08-25T16:43:53.360Z,15.20
2022-08-25T16:46:21.772Z,14.40
2022-08-25T16:48:50.942Z,19.30
2022-08-25T16:51:22.778Z,17.60
2022-08-25T16:53:52.317Z,19.30
2022-08-25T16:56:18.999Z,15.90
2022-08-25T16:58:45.918Z,17.80
2022-08-25T17:01:12.945Z,22.30
2022-08-25T17:03:44.096Z,18.30
2022-08-25T17:06:11.788Z,12.80
2022-08-25T17:08:38.431Z,20.70
2022-08-25T17:11:12.454Z,19.30
2022-08-25T17:13:44.694Z,24.20
2022-08-25T17:16:14.723Z,26.00
2022-08-25T17:18:42.680Z,24.20
2022-08-25T17:21:16.107Z,22.10
2022-08-25T17:23:51.343Z,20.60
2022-08-25T17:26:18.080Z,22.30
2022-08-25T17:28:45.082Z,23.60
2022-08-25T17:31:13.877Z,31.20
2022-08-25T17:33:41.700Z,25.70
2022-08-25T17:36:09.080Z,28.90
2022-08-25T17:38:36.033Z,32.80
2022-08-25T17:41:06.227Z,23.70
2022-08-25T17:43:35.135Z,28.70
2022-08-25T17:46:05.964Z,25.70
2022-08-25T17:48:33.468Z,23.70
2022-08-25T17:51:01.732Z,22.00
2022-08-25T17:53:29.296Z,19.60
2022-08-25T17:56:05.335Z,24.30
2022-08-25T17:58:32.616Z,24.80
2022-08-25T18:00:59.978Z,27.30
2022-08-25T18:03:27.948Z,21.00
2022-08-25T18:05:55.204Z,28.70
2022-08-25T18:08:21.955Z,22.50
2022-08-25T18:10:59.255Z,25.90
2022-08-25T18:13:26.200Z,25.00
2022-08-25T18:15:55.309Z,25.10
2022-08-25T18:18:24.105Z,27.40
2022-08-25T18:20:51.252Z,25.00
2022-08-25T18:23:19.631Z,23.80
2022-08-25T18:25:48.906Z,23.30
2022-08-25T18:28:16.096Z,22.90
2022-08-25T18:30:43.248Z,23.50
2022-08-25T18:33:11.015Z,27.20
2022-08-25T18:35:38.110Z,28.10
2022-08-25T18:38:06.041Z,28.60
2022-08-25T18:40:35.246Z,26.90
2022-08-25T18:43:05.572Z,23.60
2022-08-25T18:45:41.528Z,25.20
2022-08-25T18:48:08.892Z,23.00
2022-08-25T18:50:39.221Z,23.80
2022-08-25T18:53:06.788Z,31.60
2022-08-25T18:55:35.167Z,26.60
2022-08-25T18:58:02.191Z,23.30
2022-08-25T19:00:31.010Z,25.40
2022-08-25T19:03:00.636Z,26.90
2022-08-25T19:05:33.987Z,29.10
2022-08-25T19:08:03.329Z,25.40
2022-08-25T19:10:30.824Z,25.50
2022-08-25T19:12:57.755Z,24.70
2022-08-25T19:15:26.446Z,21.70
2022-08-25T19:17:55.146Z,26.30
2022-08-25T19:20:23.199Z,24.70
2022-08-25T19:22:50.364Z,26.40
2022-08-25T19:25:21.920Z,25.70
2022-08-25T19:27:50.123Z,25.20
2022-08-25T19:30:20.836Z,27.40
2022-08-25T19:35:21.721Z,23.10
2022-08-25T19:37:49.745Z,31.80
2022-08-25T19:40:18.244Z,28.80
2022-08-25T19:42:45.206Z,28.50
2022-08-25T19:45:13.406Z,25.70
2022-08-25T19:47:40.109Z,27.90
2022-08-25T19:50:08.752Z,23.20
2022-08-25T19:52:36.285Z,21.80
2022-08-25T19:55:03.338Z,27.40
2022-08-25T19:57:42.744Z,31.20
2022-08-25T20:00:21.140Z,26.80
2022-08-25T20:02:48.069Z,27.60
2022-08-25T20:05:15.822Z,27.20
2022-08-25T20:07:52.231Z,28.80
2022-08-25T20:10:21.172Z,27.40
2022-08-25T20:12:48.349Z,26.80
2022-08-25T20:15:16.831Z,19.90
2022-08-25T20:17:44.294Z,25.00
2022-08-25T20:20:15.142Z,24.60
2022-08-25T20:22:42.292Z,27.90
2022-08-25T20:25:14.157Z,23.40
2022-08-25T20:27:56.088Z,23.60
2022-08-25T20:30:25.441Z,26.00
2022-08-25T20:32:53.643Z,24.60
2022-08-25T20:35:21.716Z,26.00
2022-08-25T20:37:55.289Z,22.40
2022-08-25T20:40:25.465Z,22.50
2022-08-25T20:42:53.124Z,25.80
2022-08-25T20:45:21.090Z,25.30
2022-08-25T20:47:48.169Z,26.90
2022-08-25T20:50:15.870Z,25.00
2022-08-25T20:52:43.913Z,28.90
2022-08-25T20:55:11.353Z,23.60
2022-08-25T20:57:38.287Z,27.40
2022-08-25T21:00:08.326Z,22.90
2022-08-25T21:02:36.327Z,20.80
2022-08-25T21:05:05.715Z,20.00
2022-08-25T21:07:35.673Z,23.10
2022-08-25T21:10:06.678Z,26.60
2022-08-25T21:12:37.750Z,26.10
2022-08-25T21:15:05.079Z,26.90
2022-08-25T21:17:33.871Z,26.20
2022-08-25T21:20:00.519Z,22.90
2022-08-25T21:22:36.568Z,26.20
2022-08-25T21:25:05.476Z,24.90
2022-08-25T21:27:33.294Z,31.30
2022-08-25T21:29:59.907Z,30.30
2022-08-25T21:32:26.481Z,24.60
2022-08-25T21:34:54.497Z,28.00
2022-08-25T21:37:22.192Z,24.30
2022-08-25T21:39:49.087Z,26.10
2022-08-25T21:42:16.062Z,21.00
2022-08-25T21:44:43.222Z,22.70
2022-08-25T21:47:09.787Z,22.10
2022-08-25T21:49:37.607Z,19.70
2022-08-25T21:52:04.717Z,28.70
2022-08-25T21:54:31.940Z,20.60
2022-08-25T21:57:02.256Z,24.00
2022-08-25T21:59:33.632Z,23.70
2022-08-25T22:02:03.399Z,24.60
2022-08-25T22:04:31.490Z,23.20
2022-08-25T22:06:59.050Z,22.10
2022-08-25T22:09:28.356Z,26.80
2022-08-25T22:11:55.784Z,21.10
2022-08-25T22:14:24.191Z,26.00
2022-08-25T22:16:54.086Z,25.20
2022-08-25T22:19:20.994Z,25.10
2022-08-25T22:21:47.641Z,21.90
2022-08-25T22:24:15.084Z,17.20
2022-08-25T22:26:41.885Z,20.10
2022-08-25T22:29:14.019Z,19.40
2022-08-25T22:31:51.106Z,23.50
2022-08-25T22:34:20.105Z,18.50
2022-08-25T22:36:59.565Z,25.90
2022-08-25T22:39:28.248Z,19.60
2022-08-25T22:41:55.485Z,23.60
2022-08-25T22:44:23.219Z,22.80
2022-08-25T22:46:50.344Z,22.70
2022-08-25T22:49:17.276Z,23.60
2022-08-25T22:51:44.213Z,26.20
2022-08-25T22:54:14.132Z,19.90
2022-08-25T22:56:41.323Z,21.90
2022-08-25T22:59:11.295Z,24.80
2022-08-25T23:01:38.698Z,16.80
2022-08-25T23:04:07.578Z,16.00
2022-08-25T23:06:45.434Z,17.40
2022-08-25T23:09:14.127Z,20.80
2022-08-25T23:11:40.964Z,18.80
2022-08-25T23:14:09.273Z,18.30
2022-08-25T23:16:36.313Z,18.00
2022-08-25T23:19:02.969Z,16.70
2022-08-25T23:21:29.729Z,16.80
2022-08-25T23:24:02.243Z,20.70
2022-08-25T23:26:28.800Z,20.60
2022-08-25T23:28:55.491Z,23.10
2022-08-25T23:31:22.168Z,17.30
2022-08-25T23:33:51.036Z,21.60
2022-08-25T23:36:19.485Z,15.40
2022-08-25T23:38:51.562Z,19.10
2022-08-25T23:41:21.374Z,20.10
2022-08-25T23:43:49.792Z,18.40
2022-08-25T23:46:19.203Z,20.10
2022-08-25T23:48:48.010Z,16.20
2022-08-25T23:51:30.339Z,18.60
2022-08-25T23:53:57.734Z,17.50
2022-08-25T23:56:26.244Z,21.30
2022-08-25T23:58:55.469Z,17.40
